地図

経路データ

SID SEASON NUMBER BASIN SUBBASIN NAME ISO_TIME NATURE LAT LON WMO_WIND WMO_PRES WMO_AGENCY TRACK_TYPE DIST2LAND LANDFALL IFLAG USA_AGENCY USA_ATCF_ID USA_LAT USA_LON USA_RECORD USA_STATUS USA_WIND USA_PRES USA_SSHS USA_R34_NE USA_R34_SE USA_R34_SW USA_R34_NW USA_R50_NE USA_R50_SE USA_R50_SW USA_R50_NW USA_R64_NE USA_R64_SE USA_R64_SW USA_R64_NW USA_POCI USA_ROCI USA_RMW USA_EYE TOKYO_LAT TOKYO_LON TOKYO_GRADE TOKYO_WIND TOKYO_PRES TOKYO_R50_DIR TOKYO_R50_LONG TOKYO_R50_SHORT TOKYO_R30_DIR TOKYO_R30_LONG TOKYO_R30_SHORT TOKYO_LAND CMA_LAT CMA_LON CMA_CAT CMA_WIND CMA_PRES HKO_LAT HKO_LON HKO_CAT HKO_WIND HKO_PRES NEWDELHI_LAT NEWDELHI_LON NEWDELHI_GRADE NEWDELHI_WIND NEWDELHI_PRES NEWDELHI_CI NEWDELHI_DP NEWDELHI_POCI REUNION_LAT REUNION_LON REUNION_TYPE REUNION_WIND REUNION_PRES REUNION_TNUM REUNION_CI REUNION_RMW REUNION_R34_NE REUNION_R34_SE REUNION_R34_SW REUNION_R34_NW REUNION_R50_NE REUNION_R50_SE REUNION_R50_SW REUNION_R50_NW REUNION_R64_NE REUNION_R64_SE REUNION_R64_SW REUNION_R64_NW BOM_LAT BOM_LON BOM_TYPE BOM_WIND BOM_PRES BOM_TNUM BOM_CI BOM_RMW BOM_R34_NE BOM_R34_SE BOM_R34_SW BOM_R34_NW BOM_R50_NE BOM_R50_SE BOM_R50_SW BOM_R50_NW BOM_R64_NE BOM_R64_SE BOM_R64_SW BOM_R64_NW BOM_ROCI BOM_POCI BOM_EYE BOM_POS_METHOD BOM_PRES_METHOD NADI_LAT NADI_LON NADI_CAT NADI_WIND NADI_PRES WELLINGTON_LAT WELLINGTON_LON WELLINGTON_WIND WELLINGTON_PRES DS824_LAT DS824_LON DS824_STAGE DS824_WIND DS824_PRES TD9636_LAT TD9636_LON TD9636_STAGE TD9636_WIND TD9636_PRES TD9635_LAT TD9635_LON TD9635_WIND TD9635_PRES TD9635_ROCI NEUMANN_LAT NEUMANN_LON NEUMANN_CLASS NEUMANN_WIND NEUMANN_PRES MLC_LAT MLC_LON MLC_CLASS MLC_WIND MLC_PRES USA_GUST BOM_GUST BOM_GUST_PER REUNION_GUST REUNION_GUST_PER USA_SEAHGT USA_SEARAD_NE USA_SEARAD_SE USA_SEARAD_SW USA_SEARAD_NW STORM_SPEED STORM_DIR
2001228N15118 2001 46 WP MM NOT_NAMED 2001-08-16 00:00:00 TS 15.5000 118.000 main 190 122 __O___________ -1 15.5000 118.000 1 23 1000 13 67
2001228N15118 2001 46 WP MM NOT_NAMED 2001-08-16 03:00:00 TS 15.7606 118.624 main 119 74 __P___________ -1 15.7606 118.624 1 26 999 11 63
2001228N15118 2001 46 WP MM NOT_NAMED 2001-08-16 06:00:00 TS 16.0000 119.000 main 74 74 __O___________ -1 16.0000 119.000 1 29 998 6 36
2001228N15118 2001 46 WP MM NOT_NAMED 2001-08-16 09:00:00 TS 16.2073 118.963 main 78 78 __P___________ -1 16.2073 118.963 1 29 998 5 324
2001228N15118 2001 46 WP MM NOT_NAMED 2001-08-16 12:00:00 TS 16.4000 118.700 main 115 115 __O___________ -1 16.4000 118.700 1 29 998 6 311
2001228N15118 2001 46 WP MM NOT_NAMED 2001-08-16 15:00:00 TS 16.6150 118.480 main 142 142 __P___________ -1 16.6150 118.480 1 29 998 6 310
2001228N15118 2001 46 WP MM NOT_NAMED 2001-08-16 18:00:00 TS 16.8000 118.200 main 179 179 __O___________ -1 16.8000 118.200 1 29 998 7 299
2001228N15118 2001 46 WP MM NOT_NAMED 2001-08-16 21:00:00 TS 16.9526 117.835 main 227 227 __P___________ -1 16.9526 117.835 1 29 998 7 287
2001228N15118 2001 46 WP MM NOT_NAMED 2001-08-17 00:00:00 TS 17.0000 117.500 main 257 257 __O___________ -1 17.0000 117.500 1 29 998 5 263
2001228N15118 2001 46 WP MM NOT_NAMED 2001-08-17 03:00:00 TS 16.8949 117.305 main 274 271 __P___________ -1 16.8949 117.305 1 29 998 4 224
2001228N15118 2001 46 WP MM NOT_NAMED 2001-08-17 06:00:00 TS 16.7000 117.200 main 278 275 __O___________ -1 16.7000 117.200 1 29 998 5 202
2001228N15118 2001 46 WP MM NOT_NAMED 2001-08-17 09:00:00 TS 16.4775 117.128 main 283 279 __P___________ -1 16.4775 117.128 1 29 998 4 193
2001228N15118 2001 46 WP MM NOT_NAMED 2001-08-17 12:00:00 TS 16.3000 117.100 main 279 279 __O___________ -1 16.3000 117.100 1 29 998 2 185
2001228N15118 2001 46 WP MM NOT_NAMED 2001-08-17 15:00:00 TS 16.2925 117.100 main 279 279 __P___________ -1 16.2925 117.100 1 29 998 0 0
2001228N15118 2001 46 WP MM NOT_NAMED 2001-08-17 18:00:00 TS 16.3000 117.100 main 279 278 __O___________ -1 16.3000 117.100 1 29 998 1 196
2001228N15118 2001 46 WP MM NOT_NAMED 2001-08-17 21:00:00 TS 16.1725 117.057 main 278 278 __P___________ -1 16.1725 117.057 1 29 998 3 197
2001228N15118 2001 46 WP MM NOT_NAMED 2001-08-18 00:00:00 TS 16.0000 117.000 main 288 288 __O___________ -1 16.0000 117.000 1 29 998 3 199
2001228N15118 2001 46 WP MM NOT_NAMED 2001-08-18 03:00:00 TS 15.8575 116.942 main 299 299 __P___________ -1 15.8575 116.942 1 29 998 3 197
2001228N15118 2001 46 WP MM NOT_NAMED 2001-08-18 06:00:00 TS 15.7000 116.900 main 301 301 __O___________ -1 15.7000 116.900 1 29 998 4 185
2001228N15118 2001 46 WP MM NOT_NAMED 2001-08-18 09:00:00 TS 15.4775 116.893 main 304 304 __P___________ -1 15.4775 116.893 1 29 998 4 0
2001228N15118 2001 46 WP MM NOT_NAMED 2001-08-18 12:00:00 TS 15.3000 116.900 main 309 309 __O___________ -1 15.3000 116.900 1 29 998 2 185
2001228N15118 2001 46 WP MM NOT_NAMED 2001-08-18 15:00:00 TS 15.2925 116.892 main 309 309 __P___________ -1 15.2925 116.892 1 29 998 0 0
2001228N15118 2001 46 WP MM NOT_NAMED 2001-08-18 18:00:00 TS 15.3000 116.900 main 309 302 __O___________ -1 15.3000 116.900 1 29 998 1 147
2001228N15118 2001 46 WP MM NOT_NAMED 2001-08-18 21:00:00 TS 15.1725 116.973 main 302 302 __P___________ -1 15.1725 116.973 1 29 998 3 163
2001228N15118 2001 46 WP MM NOT_NAMED 2001-08-19 00:00:00 TS 15.0000 117.000 main 310 310 __O___________ -1 15.0000 117.000 1 29 998 3 196
2001228N15118 2001 46 WP MM NOT_NAMED 2001-08-19 03:00:00 TS 14.8500 116.872 main 324 324 __P___________ -1 14.8500 116.872 1 29 998 4 224
2001228N15118 2001 46 WP MM NOT_NAMED 2001-08-19 06:00:00 TS 14.7000 116.700 main 352 352 __O___________ -1 14.7000 116.700 1 29 998 4 220
2001228N15118 2001 46 WP MM NOT_NAMED 2001-08-19 09:00:00 TS 14.5425 116.600 main 368 368 __P___________ -1 14.5425 116.600 1 29 998 4 213
2001228N15118 2001 46 WP MM NOT_NAMED 2001-08-19 12:00:00 TS 14.4000 116.500 main 382 382 __O___________ -1 14.4000 116.500 1 29 998 3 224
2001228N15118 2001 46 WP MM NOT_NAMED 2001-08-19 15:00:00 TS 14.2925 116.350 main 395 395 __P___________ -1 14.2925 116.350 1 26 999 4 236
2001228N15118 2001 46 WP MM NOT_NAMED 2001-08-19 18:00:00 TS 14.2000 116.200 main 420 420 __O___________ -1 14.2000 116.200 1 23 1000 3 233
2001228N15118 2001 46 WP MM NOT_NAMED 2001-08-19 21:00:00 TS 14.1025 116.087 main 433 433 __P___________ -1 14.1025 116.087 1 23 1001 3 224
2001228N15118 2001 46 WP MM NOT_NAMED 2001-08-20 00:00:00 TS 14.0000 116.000 main 447 __O___________ -1 14.0000 116.000 1 23 1002 3 222

デジタル台風データ・検索

IBTrACS Databaseについて

本データベースは、米国NOAAが公開する1842年以降の世界の熱帯低気圧のベストトラックデータアーカイブInternational Best Track Archive for Climate Stewardship (IBTrACS)を、ウェブで閲覧しやすい形式に変換したものです。

最終更新日:2021-11-26